Time;durP1;ratioP1;P1;durP2;ratioP2;P2;SDS_P1;SDS_P2;PMS_P1;PMS_P2;Temp;Humidity;BMP_temperature;BMP_pressure;BME280_temperature;BME280_humidity;BME280_pressure;Samples;Min_cycle;Max_cycle;Signal;HPM_P1;HPM_P2
2022/06/05 00:02:20;;;;;;;4.90;4.40;;;16.90;97.90;;;;;;4181175;28;20180;-70
2022/06/05 00:05:05;;;;;;;4.17;3.57;;;16.90;98.00;;;;;;4162337;28;20208;-70
2022/06/05 00:07:36;;;;;;;5.63;4.03;;;16.90;97.70;;;;;;4139584;28;20563;-70
2022/06/05 00:10:01;;;;;;;4.60;3.60;;;16.90;97.80;;;;;;4172751;28;20263;-70
2022/06/05 00:12:13;;;;;;;4.87;3.60;;;16.90;98.40;;;;;;4180991;28;20176;-70
2022/06/05 00:14:14;;;;;;;7.43;5.07;;;17.00;98.00;;;;;;4181120;28;20249;-70
2022/06/05 00:16:16;;;;;;;7.33;5.10;;;17.00;97.70;;;;;;4180207;28;20180;-70
2022/06/05 00:18:17;;;;;;;7.03;4.70;;;16.90;97.70;;;;;;4180865;28;20177;-70
2022/06/05 00:20:17;;;;;;;4.77;4.33;;;16.80;98.10;;;;;;4180570;28;20562;-71
2022/06/05 00:22:19;;;;;;;4.23;3.83;;;16.90;97.90;;;;;;4180804;28;20666;-70
2022/06/05 00:24:20;;;;;;;3.80;3.40;;;17.00;97.70;;;;;;4180969;28;20189;-70
2022/06/05 00:26:37;;;;;;;4.63;3.27;;;17.10;97.70;;;;;;4180006;28;20187;-71
2022/06/05 00:28:58;;;;;;;3.63;3.33;;;17.10;97.60;;;;;;4180774;28;20238;-71
2022/06/05 00:31:09;;;;;;;4.60;3.70;;;17.10;97.50;;;;;;4168890;28;20678;-71
2022/06/05 00:33:38;;;;;;;5.50;3.47;;;17.20;97.30;;;;;;4180594;28;20217;-71
2022/06/05 00:35:56;;;;;;;4.40;4.00;;;17.20;97.20;;;;;;4176792;28;20737;-70
2022/06/05 00:38:05;;;;;;;4.10;3.60;;;17.20;97.50;;;;;;4180699;28;20204;-71
2022/06/05 00:40:28;;;;;;;3.73;3.30;;;17.20;97.10;;;;;;4180656;28;20179;-71
2022/06/05 00:42:31;;;;;;;4.50;4.10;;;17.20;97.50;;;;;;4180488;28;20690;-71
2022/06/05 00:44:46;;;;;;;4.93;3.70;;;17.20;97.40;;;;;;4180465;28;20266;-71
2022/06/05 00:46:50;;;;;;;4.17;3.63;;;17.20;97.40;;;;;;4180310;28;20187;-71
2022/06/05 00:48:51;;;;;;;6.50;3.90;;;17.20;97.60;;;;;;4180652;28;20176;-71
2022/06/05 00:50:52;;;;;;;4.20;3.80;;;17.20;97.50;;;;;;4180724;28;20302;-71
2022/06/05 00:52:55;;;;;;;5.23;3.63;;;17.20;97.00;;;;;;4180349;28;20181;-72
2022/06/05 00:54:56;;;;;;;4.70;3.90;;;17.20;97.30;;;;;;4180537;28;20207;-71
2022/06/05 00:56:57;;;;;;;5.77;3.87;;;17.30;97.30;;;;;;4179875;28;20176;-70
2022/06/05 00:58:58;;;;;;;5.07;4.23;;;17.40;96.60;;;;;;4180258;28;20180;-71
2022/06/05 01:00:58;;;;;;;4.30;3.90;;;17.20;97.50;;;;;;4180180;28;20597;-71
2022/06/05 01:03:03;;;;;;;4.93;4.43;;;17.20;98.30;;;;;;4180115;28;20306;-71
2022/06/05 01:05:08;;;;;;;4.73;4.30;;;17.10;99.90;;;;;;4180522;28;20181;-71
2022/06/05 01:07:09;;;;;;;5.17;4.40;;;17.10;99.90;;;;;;4179902;28;20255;-72
2022/06/05 01:09:09;;;;;;;6.87;4.10;;;17.10;99.90;;;;;;4180257;28;20172;-71
2022/06/05 01:11:48;;;;;;;7.23;5.53;;;17.10;99.90;;;;;;4180134;28;20188;-71
2022/06/05 01:14:13;;;;;;;6.20;4.93;;;16.90;99.50;;;;;;4171267;28;20266;-71
2022/06/05 01:16:31;;;;;;;6.57;5.87;;;16.60;99.90;;;;;;4179313;28;20179;-71
2022/06/05 01:18:54;;;;;;;7.87;6.33;;;16.50;99.90;;;;;;4179959;28;20230;-71
2022/06/05 01:21:41;;;;;;;6.50;5.83;;;16.30;99.90;;;;;;4179669;28;20184;-71
2022/06/05 01:24:29;;;;;;;6.73;5.53;;;16.20;99.90;;;;;;4167655;28;20220;-71
2022/06/05 01:26:50;;;;;;;6.40;4.93;;;16.40;99.90;;;;;;4168994;28;20199;-71
2022/06/05 01:29:00;;;;;;;6.40;5.40;;;16.50;99.90;;;;;;4179851;28;20187;-71
2022/06/05 01:31:36;;;;;;;6.60;5.80;;;16.50;99.90;;;;;;4179509;28;20176;-71
2022/06/05 01:33:43;;;;;;;6.63;5.23;;;16.50;99.90;;;;;;4175659;28;20738;-71
2022/06/05 01:36:12;;;;;;;6.93;5.80;;;16.50;99.90;;;;;;4179013;28;20188;-71
2022/06/05 01:38:29;;;;;;;6.83;5.37;;;16.50;99.90;;;;;;4179576;28;20651;-71
2022/06/05 01:40:34;;;;;;;6.10;5.50;;;16.60;99.90;;;;;;4179690;28;20614;-71
2022/06/05 01:42:40;;;;;;;6.77;4.80;;;16.50;99.90;;;;;;4179031;28;20306;-72
2022/06/05 01:44:47;;;;;;;6.50;5.53;;;16.50;99.90;;;;;;4172663;28;20208;-71
2022/06/05 01:46:50;;;;;;;9.37;5.97;;;16.50;99.90;;;;;;4162439;28;20177;-71
2022/06/05 01:49:05;;;;;;;8.03;5.73;;;16.50;99.90;;;;;;4164279;28;20716;-71
2022/06/05 01:51:15;;;;;;;8.63;7.20;;;16.50;99.90;;;;;;4164307;28;20181;-71
2022/06/05 01:53:24;;;;;;;9.77;7.23;;;16.40;99.90;;;;;;4163948;28;20200;-71
2022/06/05 01:55:37;;;;;;;7.10;6.40;;;16.20;99.90;;;;;;4163283;28;20203;-71
2022/06/05 01:57:38;;;;;;;8.13;6.43;;;16.20;99.90;;;;;;4177432;28;20682;-71
2022/06/05 01:59:43;;;;;;;6.97;6.27;;;16.20;99.90;;;;;;4180547;28;20192;-71
2022/06/05 02:01:50;;;;;;;9.67;5.93;;;16.20;99.90;;;;;;4180578;28;20204;-71
2022/06/05 02:04:14;;;;;;;9.80;5.90;;;16.30;99.90;;;;;;4180679;28;20226;-71
2022/06/05 02:06:20;;;;;;;6.53;5.67;;;16.30;99.90;;;;;;4175710;28;20200;-71
2022/06/05 02:08:27;;;;;;;6.43;5.60;;;16.20;99.90;;;;;;4179387;28;20180;-72
2022/06/05 02:10:36;;;;;;;10.43;5.80;;;16.30;99.90;;;;;;4179362;28;20637;-71
2022/06/05 02:12:37;;;;;;;7.70;5.87;;;16.20;99.90;;;;;;4179458;28;20191;-72
2022/06/05 02:14:40;;;;;;;6.27;5.67;;;16.20;99.90;;;;;;4179107;28;20204;-72
2022/06/05 02:16:42;;;;;;;7.77;5.90;;;16.20;99.90;;;;;;4178997;28;20728;-72
2022/06/05 02:18:44;;;;;;;6.57;5.93;;;16.20;99.90;;;;;;4179309;28;20551;-71
2022/06/05 02:20:45;;;;;;;6.03;5.43;;;16.20;99.90;;;;;;4179202;28;20204;-71
2022/06/05 02:22:49;;;;;;;6.87;5.70;;;16.30;99.90;;;;;;4179300;28;20251;-71
2022/06/05 02:24:50;;;;;;;5.83;5.17;;;16.30;99.90;;;;;;4172831;28;20571;-72
2022/06/05 02:26:50;;;;;;;5.50;5.00;;;16.30;99.90;;;;;;4176990;28;20212;-71
2022/06/05 02:28:51;;;;;;;6.17;5.57;;;16.30;99.90;;;;;;4179420;28;20180;-72
2022/06/05 02:31:00;;;;;;;6.10;5.13;;;16.30;99.90;;;;;;4179027;28;20560;-72
2022/06/05 02:33:19;;;;;;;5.50;5.00;;;16.30;99.90;;;;;;4178019;28;20274;-72
2022/06/05 02:35:41;;;;;;;6.50;5.90;;;16.20;99.90;;;;;;4178716;28;20184;-72
2022/06/05 02:38:16;;;;;;;6.80;5.27;;;16.30;99.90;;;;;;4179161;28;20187;-71
2022/06/05 02:40:42;;;;;;;8.40;5.90;;;16.10;99.90;;;;;;4177936;28;20582;-71
2022/06/05 02:43:02;;;;;;;6.97;5.13;;;16.20;99.90;;;;;;4178763;28;20577;-71
2022/06/05 02:45:16;;;;;;;6.17;5.10;;;16.30;99.90;;;;;;4178719;28;20168;-72
2022/06/05 02:47:23;;;;;;;6.13;5.53;;;16.40;99.90;;;;;;4178657;28;20192;-71
2022/06/05 02:49:50;;;;;;;6.27;5.57;;;16.40;99.90;;;;;;4179015;28;20757;-71
2022/06/05 02:51:53;;;;;;;5.70;5.13;;;16.40;99.90;;;;;;4168038;28;20196;-72
2022/06/05 02:53:57;;;;;;;6.07;5.33;;;16.50;99.90;;;;;;4179182;28;20207;-71
2022/06/05 02:55:57;;;;;;;6.47;5.80;;;16.50;99.90;;;;;;4181556;28;20952;-71
2022/06/05 02:57:58;;;;;;;7.10;6.40;;;16.50;99.90;;;;;;4182473;28;20229;-71
2022/06/05 02:59:59;;;;;;;10.13;6.90;;;16.40;99.90;;;;;;4182161;28;20180;-71
2022/06/05 03:04:19;;;;;;;7.67;6.40;;;16.50;99.90;;;;;;4181916;28;20215;-71
2022/06/05 03:06:19;;;;;;;7.13;5.87;;;16.50;99.90;;;;;;4181331;28;20176;-71
2022/06/05 03:08:20;;;;;;;7.57;6.57;;;16.50;99.90;;;;;;4182013;28;20181;-71
2022/06/05 03:10:21;;;;;;;7.87;7.17;;;16.50;99.90;;;;;;4182174;28;20173;-72
2022/06/05 03:12:21;;;;;;;7.67;6.87;;;16.50;99.90;;;;;;4182055;28;20188;-71
2022/06/05 03:14:22;;;;;;;10.07;7.30;;;16.50;99.90;;;;;;4181635;28;20607;-71
2022/06/05 03:16:24;;;;;;;10.80;7.17;;;16.50;99.90;;;;;;4181203;28;20554;-72
2022/06/05 03:18:25;;;;;;;10.10;7.10;;;16.50;99.90;;;;;;4181581;28;20687;-72
2022/06/05 03:20:25;;;;;;;7.90;7.10;;;16.60;99.90;;;;;;4181668;28;20207;-71
2022/06/05 03:22:26;;;;;;;12.23;7.10;;;16.60;99.90;;;;;;4181574;28;20215;-71
2022/06/05 03:24:27;;;;;;;8.80;8.00;;;16.60;99.90;;;;;;4181471;28;20621;-71
2022/06/05 03:26:27;;;;;;;9.50;7.83;;;16.60;99.90;;;;;;4180901;28;20186;-71
2022/06/05 03:28:28;;;;;;;10.67;8.70;;;16.60;99.90;;;;;;4182060;28;20191;-71
2022/06/05 03:30:29;;;;;;;9.43;8.43;;;16.60;99.90;;;;;;4181598;28;20899;-71
2022/06/05 03:32:30;;;;;;;9.20;8.17;;;16.50;99.90;;;;;;4181990;28;20203;-71
2022/06/05 03:34:31;;;;;;;9.30;8.40;;;16.50;99.90;;;;;;4181422;28;20279;-72
2022/06/05 03:36:32;;;;;;;9.00;8.20;;;16.60;99.90;;;;;;4180795;28;20195;-71
2022/06/05 03:38:32;;;;;;;8.83;7.90;;;16.70;99.90;;;;;;4177011;28;20259;-71
2022/06/05 03:40:34;;;;;;;9.10;8.13;;;16.80;99.90;;;;;;4181354;28;20185;-71
2022/06/05 03:42:34;;;;;;;9.10;7.57;;;16.80;99.90;;;;;;4181214;28;20216;-71
2022/06/05 03:44:39;;;;;;;8.37;7.57;;;16.70;99.90;;;;;;4181327;28;20200;-71
2022/06/05 03:46:40;;;;;;;9.37;8.37;;;16.70;99.90;;;;;;4180514;28;20629;-72
2022/06/05 03:48:41;;;;;;;9.43;8.30;;;16.70;99.90;;;;;;4181465;28;20172;-71
2022/06/05 03:50:42;;;;;;;9.23;8.33;;;16.60;99.90;;;;;;4181246;28;20191;-71
2022/06/05 03:52:43;;;;;;;11.33;8.53;;;16.60;99.90;;;;;;4181361;28;20180;-71
2022/06/05 03:54:43;;;;;;;11.87;8.20;;;16.60;99.90;;;;;;4180978;28;20200;-71
2022/06/05 03:56:44;;;;;;;9.47;8.07;;;16.60;99.90;;;;;;4180317;28;20647;-71
2022/06/05 03:58:45;;;;;;;13.53;9.67;;;16.60;99.90;;;;;;4181328;28;20192;-71
2022/06/05 04:00:45;;;;;;;11.10;9.87;;;16.60;99.90;;;;;;4181032;28;20215;-71
2022/06/05 04:02:47;;;;;;;12.27;10.23;;;16.50;99.90;;;;;;4180944;28;20271;-71
2022/06/05 04:04:47;;;;;;;14.10;10.00;;;16.40;99.90;;;;;;4180639;28;20728;-71
2022/06/05 04:06:48;;;;;;;11.87;10.43;;;16.30;99.90;;;;;;4178363;28;20184;-71
2022/06/05 04:08:49;;;;;;;14.43;11.53;;;16.30;99.90;;;;;;4181173;28;20211;-71
2022/06/05 04:10:49;;;;;;;14.73;11.53;;;16.30;99.90;;;;;;4181273;28;20186;-71
2022/06/05 04:12:50;;;;;;;15.50;11.17;;;16.30;99.90;;;;;;4181070;28;20212;-71
2022/06/05 04:14:50;;;;;;;13.03;11.63;;;16.40;99.90;;;;;;4181249;28;20204;-71
2022/06/05 04:16:51;;;;;;;18.67;13.10;;;16.40;99.90;;;;;;4180354;28;20263;-72
2022/06/05 04:18:52;;;;;;;27.27;13.50;;;16.30;99.90;;;;;;4180786;28;20181;-72
2022/06/05 04:20:53;;;;;;;32.43;14.37;;;16.20;99.90;;;;;;4180924;28;20199;-73
2022/06/05 04:22:53;;;;;;;34.33;18.47;;;16.10;99.90;;;;;;4180811;28;20212;-71
2022/06/05 04:24:54;;;;;;;30.23;16.60;;;16.00;99.90;;;;;;4180793;28;20233;-73
2022/06/05 04:26:54;;;;;;;22.93;14.93;;;16.00;99.90;;;;;;4180416;28;20184;-73
2022/06/05 04:28:55;;;;;;;16.50;11.57;;;15.90;99.90;;;;;;4180640;28;20218;-71
2022/06/05 04:30:56;;;;;;;27.70;16.43;;;15.90;99.90;;;;;;4180853;28;20177;-71
2022/06/05 04:32:59;;;;;;;28.93;17.87;;;15.80;99.90;;;;;;4180507;28;20184;-71
2022/06/05 04:34:59;;;;;;;13.87;9.93;;;15.90;99.90;;;;;;4180269;28;20207;-72
2022/06/05 04:37:00;;;;;;;17.80;16.47;;;15.90;99.90;;;;;;4180199;28;20177;-71
2022/06/05 04:39:01;;;;;;;10.00;8.77;;;15.90;99.90;;;;;;4180521;28;20187;-71
2022/06/05 04:41:01;;;;;;;17.23;15.63;;;15.80;99.90;;;;;;4171543;28;20241;-72
2022/06/05 04:43:02;;;;;;;16.37;14.33;;;15.80;99.90;;;;;;4178733;28;20224;-72
2022/06/05 04:45:03;;;;;;;18.03;14.70;;;15.80;99.90;;;;;;4179955;28;20275;-71
2022/06/05 04:47:04;;;;;;;15.70;13.07;;;15.90;99.90;;;;;;4179782;28;20271;-72
2022/06/05 04:49:08;;;;;;;19.00;14.03;;;15.90;99.90;;;;;;4180314;28;20212;-71
2022/06/05 04:51:12;;;;;;;18.97;14.27;;;16.10;99.90;;;;;;4180231;28;20562;-71
2022/06/05 04:53:13;;;;;;;11.93;10.67;;;16.10;99.90;;;;;;4180165;28;20183;-71
2022/06/05 04:55:13;;;;;;;16.37;12.10;;;16.10;99.90;;;;;;4179884;28;20267;-71
2022/06/05 04:57:14;;;;;;;16.20;12.93;;;16.10;99.90;;;;;;4179701;28;20543;-71
2022/06/05 04:59:15;;;;;;;13.83;12.07;;;16.00;99.90;;;;;;4180178;28;20192;-71
2022/06/05 05:01:22;;;;;;;12.73;11.20;;;16.10;99.90;;;;;;4180059;28;20184;-72
2022/06/05 05:03:23;;;;;;;13.33;9.73;;;16.10;99.90;;;;;;4179964;28;20214;-71
2022/06/05 05:05:24;;;;;;;15.73;10.80;;;16.10;99.90;;;;;;4179376;28;20188;-71
2022/06/05 05:07:24;;;;;;;12.13;9.03;;;16.00;99.90;;;;;;4179840;28;20642;-71
2022/06/05 05:09:25;;;;;;;13.63;10.40;;;16.10;99.90;;;;;;4179888;28;20176;-71
2022/06/05 05:11:26;;;;;;;15.17;11.23;;;16.10;99.90;;;;;;4179784;28;20188;-71
2022/06/05 05:13:27;;;;;;;14.23;10.80;;;16.00;99.90;;;;;;4179729;28;20562;-71
2022/06/05 05:15:28;;;;;;;15.43;11.57;;;16.10;99.90;;;;;;4179209;28;20176;-71
2022/06/05 05:17:28;;;;;;;16.97;12.83;;;16.00;99.90;;;;;;4179740;28;20231;-71
2022/06/05 05:19:29;;;;;;;9.77;8.53;;;16.10;99.90;;;;;;4179618;28;20192;-71
2022/06/05 05:21:30;;;;;;;9.13;7.83;;;16.10;99.90;;;;;;4179617;28;20607;-71
2022/06/05 05:23:30;;;;;;;9.40;7.07;;;16.10;99.90;;;;;;4179415;28;20228;-71
2022/06/05 05:25:31;;;;;;;9.47;7.70;;;16.00;99.90;;;;;;4178880;28;20228;-71
2022/06/05 05:27:32;;;;;;;10.67;8.53;;;16.00;99.90;;;;;;4179345;28;20191;-70
2022/06/05 05:29:33;;;;;;;10.37;9.27;;;16.10;99.90;;;;;;4179527;28;20226;-71
2022/06/05 05:31:37;;;;;;;9.53;8.13;;;16.10;99.90;;;;;;4179498;28;20188;-70
2022/06/05 05:33:39;;;;;;;11.73;8.70;;;16.10;99.90;;;;;;4179308;28;20199;-70
2022/06/05 05:35:40;;;;;;;19.10;11.23;;;16.20;99.90;;;;;;4178747;28;20177;-70
2022/06/05 05:37:40;;;;;;;8.90;8.00;;;16.10;99.90;;;;;;4177860;28;20184;-70
2022/06/05 05:42:05;;;;;;;12.60;10.23;;;16.10;99.90;;;;;;4162965;28;20230;-70
2022/06/05 05:44:06;;;;;;;16.00;10.87;;;16.20;99.90;;;;;;4162808;28;20640;-71
2022/06/05 05:46:12;;;;;;;13.17;9.97;;;16.10;99.90;;;;;;4162204;28;20197;-69
2022/06/05 05:48:12;;;;;;;15.07;12.00;;;16.10;99.90;;;;;;4162551;28;20196;-72
2022/06/05 05:50:16;;;;;;;12.57;9.83;;;16.20;99.90;;;;;;4162951;28;20790;-72
2022/06/05 05:52:17;;;;;;;13.40;11.10;;;16.20;99.90;;;;;;4162737;28;20916;-71
2022/06/05 05:54:18;;;;;;;13.03;11.57;;;16.30;99.90;;;;;;4162422;28;20244;-71
2022/06/05 05:56:18;;;;;;;13.30;11.07;;;16.40;99.90;;;;;;4162049;28;20262;-71
2022/06/05 05:58:19;;;;;;;17.00;11.97;;;16.50;99.90;;;;;;4162749;28;20246;-71
2022/06/05 06:00:20;;;;;;;12.80;11.40;;;16.50;99.90;;;;;;4163145;28;20575;-71
2022/06/05 06:02:22;;;;;;;13.67;11.47;;;16.50;99.90;;;;;;4163100;28;20631;-71
2022/06/05 06:04:23;;;;;;;14.63;12.20;;;16.40;99.90;;;;;;4162543;28;20201;-71
2022/06/05 06:06:26;;;;;;;17.23;12.90;;;16.40;99.90;;;;;;4175668;28;20234;-71
2022/06/05 06:08:28;;;;;;;15.07;11.97;;;16.40;99.90;;;;;;4179568;28;20180;-71
2022/06/05 06:10:28;;;;;;;16.20;12.90;;;16.40;99.90;;;;;;4179451;28;20180;-71
2022/06/05 06:12:29;;;;;;;16.23;13.07;;;16.50;99.90;;;;;;4178986;28;20199;-71
2022/06/05 06:14:29;;;;;;;16.50;12.93;;;16.60;99.90;;;;;;4178750;28;20696;-70
2022/06/05 06:16:30;;;;;;;16.50;14.13;;;16.50;99.90;;;;;;4178257;28;20187;-70
2022/06/05 06:18:31;;;;;;;18.50;15.30;;;16.60;99.90;;;;;;4178779;28;20259;-71
2022/06/05 06:20:31;;;;;;;19.30;15.63;;;16.70;99.90;;;;;;4178831;28;20515;-70
2022/06/05 06:22:34;;;;;;;20.47;16.23;;;16.70;99.90;;;;;;4178578;28;20212;-70
2022/06/05 06:24:35;;;;;;;22.43;17.77;;;16.70;99.90;;;;;;4178565;28;20208;-71
2022/06/05 06:26:35;;;;;;;23.97;18.33;;;16.60;99.90;;;;;;4178006;28;20172;-71
2022/06/05 06:28:36;;;;;;;25.17;18.20;;;16.50;99.90;;;;;;4178613;28;20713;-70
2022/06/05 06:30:38;;;;;;;22.67;17.00;;;16.60;99.90;;;;;;4178342;28;20547;-71
2022/06/05 06:32:39;;;;;;;22.70;16.20;;;16.70;99.90;;;;;;4177338;28;20188;-70
2022/06/05 06:34:39;;;;;;;23.10;16.30;;;16.90;99.90;;;;;;4178833;28;20291;-71
2022/06/05 06:36:40;;;;;;;24.40;17.57;;;16.80;99.90;;;;;;4178028;28;20184;-71
2022/06/05 06:38:41;;;;;;;19.50;15.97;;;16.70;99.90;;;;;;4178761;28;20216;-70
2022/06/05 06:40:41;;;;;;;19.80;15.33;;;16.70;99.90;;;;;;4178773;28;20184;-70
2022/06/05 06:42:42;;;;;;;17.73;14.40;;;16.80;99.90;;;;;;4178653;28;20342;-70
2022/06/05 06:44:42;;;;;;;17.87;14.67;;;16.90;99.90;;;;;;4178645;28;20200;-71
2022/06/05 06:46:43;;;;;;;15.27;11.97;;;17.10;99.90;;;;;;4178149;28;20176;-71
2022/06/05 06:48:44;;;;;;;13.77;11.40;;;17.30;99.90;;;;;;4178606;28;20637;-71
2022/06/05 06:50:45;;;;;;;14.53;12.10;;;17.50;99.90;;;;;;4178494;28;20287;-71
2022/06/05 06:52:45;;;;;;;14.80;12.00;;;17.50;99.90;;;;;;4178394;28;20743;-70
2022/06/05 06:54:48;;;;;;;10.87;9.77;;;17.50;99.90;;;;;;4178305;28;20196;-70
2022/06/05 06:56:50;;;;;;;11.97;10.77;;;17.70;99.90;;;;;;4177878;28;20183;-70
2022/06/05 06:58:50;;;;;;;11.33;10.13;;;17.90;99.90;;;;;;4178444;28;20184;-71
2022/06/05 07:00:51;;;;;;;9.83;8.37;;;17.90;99.90;;;;;;4178365;28;20184;-70
2022/06/05 07:02:52;;;;;;;9.77;7.80;;;18.00;99.90;;;;;;4178279;28;20212;-70
2022/06/05 07:04:52;;;;;;;7.43;6.73;;;18.20;99.90;;;;;;4178195;28;20671;-71
2022/06/05 07:06:53;;;;;;;8.17;6.00;;;18.30;99.90;;;;;;4177767;28;20183;-70
2022/06/05 07:08:53;;;;;;;8.80;7.90;;;18.20;99.90;;;;;;4178449;28;20181;-70
2022/06/05 07:10:54;;;;;;;6.87;6.00;;;18.30;99.90;;;;;;4178487;28;20560;-70
2022/06/05 07:12:55;;;;;;;7.87;7.07;;;18.80;99.90;;;;;;4178383;28;20192;-71
2022/06/05 07:14:56;;;;;;;8.90;8.00;;;19.00;99.90;;;;;;4178254;28;20211;-71
2022/06/05 07:16:56;;;;;;;7.17;6.50;;;19.20;99.90;;;;;;4177969;28;20691;-71
2022/06/05 07:18:57;;;;;;;6.60;5.87;;;19.20;99.90;;;;;;4178234;28;20172;-71
2022/06/05 07:20:57;;;;;;;7.07;5.50;;;19.20;99.90;;;;;;4178336;28;20196;-71
2022/06/05 07:22:58;;;;;;;6.37;5.50;;;19.40;99.90;;;;;;4178201;28;20275;-70
2022/06/05 07:24:59;;;;;;;7.43;5.87;;;19.50;99.50;;;;;;4178002;28;20200;-70
2022/06/05 07:26:59;;;;;;;5.73;5.13;;;19.60;99.90;;;;;;4177835;28;20172;-71
2022/06/05 07:29:02;;;;;;;6.40;5.80;;;19.60;99.90;;;;;;4178243;28;20207;-70
2022/06/05 07:31:03;;;;;;;6.60;5.10;;;19.60;99.90;;;;;;4178083;28;20196;-70
2022/06/05 07:33:04;;;;;;;5.57;5.07;;;19.70;98.70;;;;;;4177933;28;20180;-71
2022/06/05 07:35:05;;;;;;;5.33;4.53;;;19.80;99.90;;;;;;4164825;28;20185;-70
2022/06/05 07:37:06;;;;;;;6.63;4.53;;;19.60;99.90;;;;;;4161261;28;20649;-70
2022/06/05 07:39:06;;;;;;;4.17;3.70;;;19.60;98.50;;;;;;4161645;28;20720;-71
2022/06/05 07:41:18;;;;;;;4.83;3.80;;;19.40;98.90;;;;;;4161930;28;20201;-70
2022/06/05 07:43:21;;;;;;;5.53;4.50;;;19.90;98.30;;;;;;4164373;28;20208;-71
2022/06/05 07:45:21;;;;;;;5.90;4.80;;;20.10;98.20;;;;;;4163940;28;20181;-71
2022/06/05 07:47:22;;;;;;;6.60;5.00;;;20.00;98.40;;;;;;4164754;28;20185;-70
2022/06/05 07:49:22;;;;;;;7.20;4.63;;;19.90;99.50;;;;;;4164486;28;20184;-70
2022/06/05 07:56:04;;;;;;;6.30;3.83;;;20.70;94.50;;;;;;4163848;28;20272;-70
2022/06/05 07:58:04;;;;;;;4.97;4.00;;;21.10;95.20;;;;;;4164429;28;20189;-70
2022/06/05 08:00:07;;;;;;;7.40;5.40;;;21.20;93.50;;;;;;4173303;28;20176;-70
2022/06/05 08:02:12;;;;;;;5.07;4.13;;;21.20;93.80;;;;;;4180730;28;20269;-71
2022/06/05 08:04:13;;;;;;;7.30;4.63;;;21.30;94.00;;;;;;4181043;28;20203;-70
2022/06/05 08:06:13;;;;;;;4.50;4.10;;;21.40;93.60;;;;;;4180341;28;20279;-71
2022/06/05 08:08:14;;;;;;;4.73;4.30;;;21.20;92.10;;;;;;4180972;28;20180;-71
2022/06/05 08:10:14;;;;;;;6.13;4.30;;;21.30;94.70;;;;;;4180862;28;20799;-71
2022/06/05 08:12:18;;;;;;;4.20;3.30;;;21.50;97.40;;;;;;4180804;28;20183;-70
2022/06/05 08:14:19;;;;;;;2.80;2.60;;;21.50;96.00;;;;;;4180724;28;20246;-70
2022/06/05 08:16:19;;;;;;;3.37;2.40;;;20.70;95.40;;;;;;4180310;28;20188;-70
2022/06/05 08:18:20;;;;;;;5.10;3.00;;;20.50;95.90;;;;;;4180383;28;20220;-70
2022/06/05 08:20:21;;;;;;;3.43;3.10;;;20.30;99.20;;;;;;4183465;28;20192;-70
2022/06/05 08:22:23;;;;;;;3.93;2.80;;;20.40;98.10;;;;;;4183670;28;20229;-68
2022/06/05 08:24:23;;;;;;;6.33;3.17;;;20.80;96.40;;;;;;4178517;28;20208;-71
2022/06/05 08:26:24;;;;;;;4.10;2.70;;;21.10;96.30;;;;;;4165575;28;20185;-71
2022/06/05 08:28:25;;;;;;;3.77;3.47;;;21.30;97.10;;;;;;4165621;28;20602;-71
2022/06/05 08:30:25;;;;;;;4.00;3.07;;;21.10;97.00;;;;;;4166041;28;20188;-71
2022/06/05 08:32:29;;;;;;;3.40;2.80;;;21.00;95.20;;;;;;4165905;28;20267;-70
2022/06/05 08:34:30;;;;;;;3.17;2.57;;;20.80;97.60;;;;;;4166184;28;20790;-71
2022/06/05 08:36:32;;;;;;;3.20;2.90;;;20.90;96.90;;;;;;4165831;28;20192;-71
2022/06/05 08:41:27;;;;;;;4.30;3.17;;;20.90;95.90;;;;;;4166956;28;20250;-71
2022/06/05 08:44:04;;;;;;;3.60;3.30;;;20.70;95.90;;;;;;4166047;28;20239;-71
2022/06/05 08:46:08;;;;;;;3.90;3.50;;;20.30;95.80;;;;;;4130769;28;20927;-71
2022/06/05 08:48:20;;;;;;;5.33;4.30;;;20.00;98.40;;;;;;4165606;28;20193;-71
2022/06/05 08:50:29;;;;;;;3.97;3.60;;;19.80;98.70;;;;;;4166034;28;20211;-70
2022/06/05 08:52:56;;;;;;;4.73;4.33;;;19.90;99.00;;;;;;4165767;28;20184;-70
2022/06/05 08:55:46;;;;;;;8.37;5.00;;;19.80;99.90;;;;;;4164435;28;20212;-70
2022/06/05 08:57:58;;;;;;;6.83;5.43;;;19.60;99.90;;;;;;4147296;28;20189;-70
2022/06/05 09:00:20;;;;;;;6.03;4.73;;;19.40;99.90;;;;;;4147624;28;20240;-70
2022/06/05 09:02:26;;;;;;;5.90;5.37;;;19.50;99.90;;;;;;4150998;28;20251;-70
2022/06/05 09:05:13;;;;;;;6.67;5.63;;;19.30;99.90;;;;;;4165904;28;20294;-70
2022/06/05 09:07:19;;;;;;;6.83;5.27;;;19.00;99.90;;;;;;4163266;28;20272;-70
2022/06/05 09:10:10;;;;;;;6.50;5.17;;;18.90;99.90;;;;;;4166003;28;20185;-70
2022/06/05 09:12:47;;;;;;;7.47;5.33;;;18.60;99.90;;;;;;4155588;28;20189;-70
2022/06/05 09:15:11;;;;;;;6.63;5.60;;;18.50;99.90;;;;;;4165452;28;20201;-69
2022/06/05 09:17:16;;;;;;;9.63;8.97;;;18.40;99.90;;;;;;4163506;28;20267;-70
2022/06/05 09:19:24;;;;;;;8.97;8.03;;;18.20;99.90;;;;;;4165025;28;20177;-69
2022/06/05 09:21:30;;;;;;;8.33;7.27;;;18.20;99.90;;;;;;4164890;28;20680;-68
2022/06/05 09:23:36;;;;;;;7.67;6.47;;;18.40;99.90;;;;;;4164875;28;20232;-68
2022/06/05 09:25:50;;;;;;;8.40;6.80;;;18.40;99.90;;;;;;4164805;28;20181;-69
2022/06/05 09:28:25;;;;;;;9.73;7.10;;;18.40;99.90;;;;;;4164842;28;20260;-69
2022/06/05 09:30:42;;;;;;;8.67;6.10;;;18.40;99.90;;;;;;4165419;28;20180;-69
2022/06/05 09:33:03;;;;;;;6.20;5.60;;;18.50;99.90;;;;;;4165775;28;20208;-70
2022/06/05 09:35:22;;;;;;;4.83;4.33;;;18.30;99.90;;;;;;4164100;28;20734;-69
2022/06/05 09:37:32;;;;;;;5.10;4.17;;;18.30;99.90;;;;;;4165684;28;20181;-69
2022/06/05 09:39:42;;;;;;;6.83;4.80;;;18.30;99.90;;;;;;4171048;28;20188;-70
2022/06/05 09:41:51;;;;;;;5.57;4.97;;;18.20;99.90;;;;;;4181804;28;20214;-69
2022/06/05 09:44:00;;;;;;;9.37;5.53;;;18.30;99.90;;;;;;4181680;28;20714;-70
2022/06/05 09:46:42;;;;;;;9.10;5.93;;;18.20;99.90;;;;;;4181297;28;20757;-69
2022/06/05 09:49:13;;;;;;;7.03;5.40;;;18.40;99.90;;;;;;4174638;28;20184;-70
2022/06/05 09:51:16;;;;;;;9.67;6.70;;;18.30;99.90;;;;;;4194845;28;20174;-70
2022/06/05 09:53:29;;;;;;;12.03;6.67;;;18.20;99.90;;;;;;4182575;28;20531;-71
2022/06/05 09:55:32;;;;;;;8.20;6.20;;;18.10;99.90;;;;;;4166461;28;20259;-71
2022/06/05 10:00:42;;;;;;;6.83;6.13;;;18.30;99.90;;;;;;4188808;28;20191;-71
2022/06/05 10:02:49;;;;;;;6.93;6.23;;;18.30;99.90;;;;;;4186895;28;20302;-71
2022/06/05 10:04:50;;;;;;;5.40;4.90;;;18.60;99.90;;;;;;4191431;28;20794;-70
2022/06/05 10:06:56;;;;;;;5.87;4.77;;;18.80;99.90;;;;;;4181435;28;20639;-71
2022/06/05 10:08:59;;;;;;;5.70;5.07;;;19.10;99.90;;;;;;4178396;28;20650;-72
2022/06/05 10:11:01;;;;;;;5.30;4.17;;;19.10;99.90;;;;;;4179821;28;20199;-73
2022/06/05 10:13:11;;;;;;;6.40;4.77;;;19.20;99.90;;;;;;4185579;28;20759;-73
2022/06/05 10:15:26;;;;;;;4.80;4.30;;;19.70;99.90;;;;;;4193130;28;20201;-72
2022/06/05 10:17:30;;;;;;;7.17;5.70;;;20.00;99.90;;;;;;4162889;28;20184;-73
2022/06/05 10:19:58;;;;;;;7.77;4.73;;;20.20;99.90;;;;;;4193566;28;20171;-70
2022/06/05 10:22:31;;;;;;;5.80;4.80;;;19.90;99.90;;;;;;4182968;28;20194;-70
2022/06/05 10:25:01;;;;;;;6.77;5.53;;;19.90;99.90;;;;;;4181678;28;20770;-70
2022/06/05 10:27:04;;;;;;;7.40;4.60;;;19.90;99.90;;;;;;4191337;28;20618;-71
2022/06/05 10:29:21;;;;;;;4.43;3.97;;;19.90;99.90;;;;;;4180471;28;20872;-71
2022/06/05 10:31:22;;;;;;;6.83;4.80;;;19.60;99.90;;;;;;4194571;28;20183;-70
2022/06/05 10:33:39;;;;;;;6.90;4.93;;;19.60;99.90;;;;;;4177968;28;20633;-70
2022/06/05 10:35:46;;;;;;;3.90;3.27;;;19.80;99.90;;;;;;4165528;28;20406;-72
2022/06/05 10:38:12;;;;;;;5.37;3.47;;;20.30;99.70;;;;;;4190495;28;20180;-72
2022/06/05 10:40:32;;;;;;;4.00;3.57;;;20.00;99.80;;;;;;4185006;28;20265;-70
2022/06/05 10:42:36;;;;;;;5.60;4.03;;;19.50;99.90;;;;;;4185201;28;20679;-69
2022/06/05 10:44:44;;;;;;;4.43;3.80;;;19.70;99.90;;;;;;4188130;28;20202;-71
2022/06/05 10:46:53;;;;;;;4.83;3.50;;;19.90;99.90;;;;;;4182801;28;20176;-71
2022/06/05 10:48:57;;;;;;;4.93;3.50;;;19.90;99.90;;;;;;4190338;28;20207;-72
2022/06/05 10:51:12;;;;;;;5.73;4.50;;;19.90;99.90;;;;;;4181430;28;20199;-74
2022/06/05 10:53:42;;;;;;;6.87;3.87;;;19.90;99.70;;;;;;4193157;28;20184;-73
2022/06/05 10:55:57;;;;;;;4.07;3.67;;;19.90;99.90;;;;;;4164808;28;20261;-73
2022/06/05 10:58:31;;;;;;;6.53;4.13;;;20.00;99.80;;;;;;4189756;28;20180;-71
2022/06/05 11:01:02;;;;;;;3.97;3.63;;;19.80;99.20;;;;;;4187428;28;20604;-70
2022/06/05 11:03:36;;;;;;;4.40;4.00;;;19.80;99.90;;;;;;4162660;28;20224;-70
2022/06/05 11:05:50;;;;;;;4.43;3.67;;;19.90;99.60;;;;;;4164448;28;20755;-70
2022/06/05 11:08:00;;;;;;;5.40;3.77;;;20.10;99.90;;;;;;4190525;28;20176;-70
2022/06/05 11:13:39;;;;;;;6.63;4.40;;;20.60;98.90;;;;;;4182999;28;20575;-70
2022/06/05 11:15:39;;;;;;;7.20;4.80;;;20.30;99.60;;;;;;4163258;28;20184;-70